Impacts METAR Board
IDs:

KMSP - Minneapolis-St Paul, MN, US

Updated at: 1800 UTC 24 Jun 2018
Potential Impact None Slight Moderate High
Time 24/06Z 24/07Z 24/08Z 24/09Z 24/10Z 24/11Z 24/12Z 24/13Z 24/14Z 24/15Z 24/16Z 24/17Z 24/18Z
Temp71 70 70 68 66 67 69 72 75 75 76 77 78
Dewpt62 62 62 62 63 62 64 64 66 66 65 66 66
Altim29.82 29.82 29.83 29.84 29.84 29.84 29.86 29.89 29.91 29.93 29.94 29.96 29.96
VIS10 10 10 10 10 9 10 10 10 10 10 10 10
CIG-- -- -- -- -- -- -- 300 300 85 90 90 95
CoverCLRCLRFEWFEWFEWSCTFEWBKNBKNOVCOVCOVCOVC
FltCatVFRVFRVFRVFRVFRVFRVFRVFRVFRVFRVFRVFRVFR
WX--------------------------
WDir12012001201309080709015018023080
WSpd3 3 0 4 4 5 4 4 5 6 3 4 6
WGst-- -- -- -- -- -- -- -- -- -- -- -- --
Raw hourly METARs
KMSP 240553Z 12003KT 10SM CLR 22/17 A2982 RMK AO2 SLP092 T02170167 10267 20217 402780178 51009
KMSP 240653Z 12003KT 10SM CLR 21/17 A2982 RMK AO2 SLP093 T02110167
KMSP 240753Z 00000KT 10SM FEW080 21/17 A2983 RMK AO2 SLP097 T02110167
KMSP 240853Z 12004KT 10SM FEW080 20/17 A2984 RMK AO2 SLP098 T02000167 53006
KMSP 240953Z 13004KT 10SM FEW080 19/17 A2984
KMSP 241053Z 09005KT 9SM SCT090 19/17 A2984 RMK AO2 SLP100 T01940167 $
KMSP 241153Z 08004KT 10SM FEW090 21/18 A2986 RMK AO2 SLP105 T02060178 10228 20194 $
KMSP 241253Z 07004KT 10SM SCT090 BKN300 22/18 A2989 RMK AO2 SLP116 T02220178 $
KMSP 241353Z 09005KT 10SM SCT085 BKN300 24/19 A2991 RMK AO2 SLP124 T02390189 $
KMSP 241453Z 15006KT 10SM SCT055 BKN085 OVC300 24/19 A2993 RMK AO2 SLP129 T02390189 51023 $
KMSP 241553Z 18003KT 10SM FEW050 OVC090 24/18 A2994 RMK AO2 SLP132 T02440183 $
KMSP 241653Z 23004KT 10SM FEW040 OVC090 25/19 A2996 RMK AO2 SLP139 T02500189 $
KMSP 241753Z 08006KT 10SM BKN095 OVC300 26/19 A2996 RMK AO2 SLP139 PRESENT WX VCSH T02560189 10261 20206 50009 $



Page loaded:  18:16 UTC  |   11:16 AM Pacific  |   12:16 PM Mountain  |   01:16 PM Central  |   02:16 PM Eastern

 

ADVISORIES

FORECASTS

FORECASTS

OBSERVATIONS

USER TOOLS

ABOUT US